createdAt,value
2023-04-11T00:02:01.011Z,3.30
2023-04-11T00:04:27.466Z,3.14
2023-04-11T00:06:53.923Z,3.31
2023-04-11T00:09:20.277Z,3.34
2023-04-11T00:11:46.665Z,3.33
2023-04-11T00:14:13.044Z,3.09
2023-04-11T00:16:39.432Z,3.07
2023-04-11T00:19:05.843Z,3.11
2023-04-11T00:21:32.202Z,3.16
2023-04-11T00:23:58.543Z,3.13
2023-04-11T00:26:24.876Z,3.07
2023-04-11T00:28:51.228Z,2.98
2023-04-11T00:31:17.634Z,3.01
2023-04-11T00:33:43.998Z,3.23
2023-04-11T00:36:10.415Z,2.88
2023-04-11T00:38:36.850Z,3.03
2023-04-11T00:41:03.205Z,3.06
2023-04-11T00:43:29.619Z,3.03
2023-04-11T00:45:56.028Z,3.23
2023-04-11T00:48:22.393Z,3.06
2023-04-11T00:50:48.762Z,3.19
2023-04-11T00:53:15.111Z,3.15
2023-04-11T00:55:41.491Z,3.34
2023-04-11T00:58:07.860Z,3.13
2023-04-11T01:00:34.237Z,2.98
2023-04-11T01:03:00.748Z,3.03
2023-04-11T01:05:27.182Z,3.02
2023-04-11T01:07:53.546Z,3.13
2023-04-11T01:10:19.910Z,3.01
2023-04-11T01:12:46.300Z,3.15
2023-04-11T01:15:12.698Z,2.80
2023-04-11T01:17:39.068Z,2.89
2023-04-11T01:20:05.485Z,3.09
2023-04-11T01:22:31.828Z,3.19
2023-04-11T01:24:58.215Z,3.08
2023-04-11T01:27:24.598Z,3.27
2023-04-11T01:29:51.025Z,3.11
2023-04-11T01:32:17.446Z,3.16
2023-04-11T01:34:43.868Z,2.94
2023-04-11T01:37:10.256Z,3.35
2023-04-11T01:39:36.594Z,3.03
2023-04-11T01:42:02.971Z,2.99
2023-04-11T01:44:29.377Z,2.81
2023-04-11T01:46:55.761Z,3.09
2023-04-11T01:49:22.145Z,3.44
2023-04-11T01:51:48.553Z,3.18
2023-04-11T01:54:14.901Z,3.21
2023-04-11T01:56:41.237Z,3.07
2023-04-11T01:59:08.728Z,3.49
2023-04-11T02:01:35.088Z,3.12
2023-04-11T02:04:01.619Z,3.10
2023-04-11T02:06:28.133Z,3.00
2023-04-11T02:08:54.789Z,2.93
2023-04-11T02:11:21.477Z,3.14
2023-04-11T02:13:47.827Z,2.94
2023-04-11T02:16:14.345Z,3.10
2023-04-11T02:18:40.739Z,2.99
2023-04-11T02:21:07.102Z,2.98
2023-04-11T02:23:33.475Z,2.92
2023-04-11T02:25:59.839Z,2.88
2023-04-11T02:28:26.220Z,2.96
2023-04-11T02:30:52.640Z,2.82
2023-04-11T02:33:19.079Z,2.78
2023-04-11T02:35:45.486Z,3.13
2023-04-11T02:38:11.874Z,2.92
2023-04-11T02:40:38.237Z,2.96
2023-04-11T02:43:04.699Z,2.92
2023-04-11T02:45:31.104Z,2.99
2023-04-11T02:47:57.551Z,2.91
2023-04-11T02:50:23.976Z,3.06
2023-04-11T02:52:50.340Z,2.98
2023-04-11T02:55:16.706Z,2.90
2023-04-11T02:57:43.096Z,3.31
2023-04-11T03:00:09.486Z,2.97
2023-04-11T03:02:35.920Z,2.91
2023-04-11T03:05:02.354Z,3.08
2023-04-11T03:07:28.753Z,3.04
2023-04-11T03:09:55.120Z,3.07
2023-04-11T03:12:21.458Z,3.04
2023-04-11T03:14:47.846Z,3.04
2023-04-11T03:17:14.184Z,3.00
2023-04-11T03:19:40.528Z,3.22
2023-04-11T03:22:06.867Z,3.09
2023-04-11T03:24:33.199Z,3.30
2023-04-11T03:26:59.573Z,3.31
2023-04-11T03:29:25.921Z,3.21
2023-04-11T03:31:52.309Z,3.32
2023-04-11T03:34:18.658Z,3.07
2023-04-11T03:36:45.033Z,3.37
2023-04-11T03:39:11.412Z,3.31
2023-04-11T03:41:37.824Z,3.52
2023-04-11T03:44:04.157Z,3.53
2023-04-11T03:46:30.604Z,3.26
2023-04-11T03:48:57.289Z,3.20
2023-04-11T03:51:23.839Z,3.39
2023-04-11T03:53:50.215Z,3.51
2023-04-11T03:56:16.593Z,3.40
2023-04-11T03:58:42.994Z,3.16
2023-04-11T04:01:09.343Z,3.43
2023-04-11T04:03:35.860Z,3.25
2023-04-11T04:06:02.288Z,3.54
2023-04-11T04:08:28.733Z,3.34
2023-04-11T04:10:55.080Z,3.41
2023-04-11T04:13:21.491Z,3.40
2023-04-11T04:15:47.881Z,3.55
2023-04-11T04:18:14.234Z,3.41
2023-04-11T04:20:40.572Z,3.32
2023-04-11T04:23:06.919Z,3.52
2023-04-11T04:25:33.284Z,3.41
2023-04-11T04:27:59.669Z,3.42
2023-04-11T04:30:26.019Z,3.72
2023-04-11T04:32:52.380Z,3.71
2023-04-11T04:35:18.781Z,5.06
2023-04-11T04:37:45.132Z,4.65
2023-04-11T04:40:11.471Z,3.54
2023-04-11T04:42:37.882Z,3.54
2023-04-11T04:45:04.223Z,3.51
2023-04-11T04:47:30.630Z,3.80
2023-04-11T04:49:57.057Z,3.35
2023-04-11T04:52:23.399Z,3.49
2023-04-11T04:54:49.756Z,3.61
2023-04-11T04:57:16.090Z,3.75
2023-04-11T04:59:42.469Z,3.40
2023-04-11T05:02:08.928Z,3.73
2023-04-11T05:04:35.377Z,3.73
2023-04-11T05:07:01.772Z,3.54
2023-04-11T05:09:28.162Z,3.58
2023-04-11T05:11:54.569Z,3.72
2023-04-11T05:14:20.905Z,3.57
2023-04-11T05:16:47.274Z,3.86
2023-04-11T05:19:13.628Z,3.67
2023-04-11T05:21:40.038Z,3.58
2023-04-11T05:24:06.394Z,3.69
2023-04-11T05:26:32.754Z,3.87
2023-04-11T05:28:59.148Z,3.78
2023-04-11T05:31:25.498Z,3.54
2023-04-11T05:33:51.840Z,3.47
2023-04-11T05:36:18.268Z,3.06
2023-04-11T05:38:44.665Z,3.11
2023-04-11T05:41:11.053Z,3.02
2023-04-11T05:43:37.420Z,2.76
2023-04-11T05:46:03.816Z,2.76
2023-04-11T05:48:30.202Z,2.27
2023-04-11T05:50:56.585Z,2.33
2023-04-11T05:53:22.982Z,2.48
2023-04-11T05:55:49.370Z,2.39
2023-04-11T05:58:15.722Z,2.36
2023-04-11T06:00:42.129Z,2.23
2023-04-11T06:03:08.682Z,2.05
2023-04-11T06:05:35.078Z,1.80
2023-04-11T06:08:01.425Z,1.38
2023-04-11T06:10:27.782Z,0.92
2023-04-11T06:12:54.125Z,0.65
2023-04-11T06:15:20.505Z,0.64
2023-04-11T06:17:47.007Z,0.64
2023-04-11T06:20:16.224Z,0.68
2023-04-11T06:22:42.615Z,0.67
2023-04-11T06:25:08.994Z,0.54
2023-04-11T06:27:35.388Z,0.43
2023-04-11T06:30:01.757Z,0.49
2023-04-11T06:32:28.158Z,0.48
2023-04-11T06:34:54.519Z,0.52
2023-04-11T06:37:20.848Z,0.46
2023-04-11T06:39:47.183Z,0.64
2023-04-11T06:42:13.581Z,0.59
2023-04-11T06:44:40.013Z,0.49
2023-04-11T06:47:06.423Z,0.60
2023-04-11T06:49:32.758Z,0.71
2023-04-11T06:51:59.125Z,1.09
2023-04-11T06:54:25.517Z,1.44
2023-04-11T06:56:51.876Z,1.74
2023-04-11T06:59:18.207Z,2.10
2023-04-11T07:01:44.624Z,2.46
2023-04-11T07:04:11.234Z,2.19
2023-04-11T07:06:37.715Z,2.23
2023-04-11T07:09:04.094Z,1.86
2023-04-11T07:11:30.429Z,1.57
2023-04-11T07:13:57.094Z,1.36
2023-04-11T07:16:23.584Z,1.13
2023-04-11T07:18:49.971Z,1.18
2023-04-11T07:21:16.332Z,1.16
2023-04-11T07:23:42.716Z,1.12
2023-04-11T07:26:09.109Z,1.02
2023-04-11T07:28:35.457Z,1.01
2023-04-11T07:31:01.815Z,0.87
2023-04-11T07:33:28.187Z,0.95
2023-04-11T07:35:54.583Z,0.97
2023-04-11T07:38:21.001Z,0.98
2023-04-11T07:40:47.391Z,0.94
2023-04-11T07:43:13.736Z,1.16
2023-04-11T07:45:40.247Z,1.07
2023-04-11T07:48:06.717Z,0.99
2023-04-11T07:50:33.134Z,0.99
2023-04-11T07:52:59.521Z,0.99
2023-04-11T07:55:25.916Z,0.89
2023-04-11T07:57:52.264Z,0.91
2023-04-11T08:00:18.610Z,0.80
2023-04-11T08:02:45.172Z,0.97
2023-04-11T08:05:11.674Z,0.89
2023-04-11T08:07:38.156Z,0.90
2023-04-11T08:10:04.547Z,0.84
2023-04-11T08:12:30.950Z,0.85
2023-04-11T08:14:57.305Z,0.86
2023-04-11T08:17:28.331Z,1.13
2023-04-11T08:19:55.385Z,1.05
2023-04-11T08:22:21.755Z,0.97
2023-04-11T08:24:48.305Z,0.95
2023-04-11T08:27:14.661Z,1.07
2023-04-11T08:29:40.999Z,1.20
2023-04-11T08:32:07.356Z,1.33
2023-04-11T08:34:33.734Z,3.19
2023-04-11T08:37:00.116Z,2.16
2023-04-11T08:39:26.460Z,1.37
2023-04-11T08:41:52.832Z,1.41
2023-04-11T08:44:19.176Z,1.21
2023-04-11T08:46:45.594Z,1.50
2023-04-11T08:49:11.936Z,1.66
2023-04-11T08:51:38.352Z,1.47
2023-04-11T08:54:04.727Z,3.02
2023-04-11T08:56:31.274Z,1.21
2023-04-11T08:58:57.669Z,1.24
2023-04-11T09:01:24.100Z,1.23
2023-04-11T09:03:50.477Z,1.31
2023-04-11T09:06:16.818Z,7.21
2023-04-11T09:08:43.222Z,1.23
2023-04-11T09:11:09.563Z,1.25
2023-04-11T09:13:35.937Z,1.11
2023-04-11T09:16:02.315Z,1.24
2023-04-11T09:18:28.657Z,1.40
2023-04-11T09:20:54.999Z,1.36
2023-04-11T09:23:21.334Z,1.04
2023-04-11T09:25:47.868Z,0.89
2023-04-11T09:28:14.221Z,0.90
2023-04-11T09:30:40.560Z,0.91
2023-04-11T09:33:06.944Z,0.80
2023-04-11T09:35:33.310Z,0.85
2023-04-11T09:37:59.697Z,0.92
2023-04-11T09:40:26.101Z,1.03
2023-04-11T09:42:52.493Z,1.04
2023-04-11T09:45:18.862Z,1.13
2023-04-11T09:47:45.221Z,1.56
2023-04-11T09:50:11.613Z,1.27
2023-04-11T09:52:37.981Z,1.57
2023-04-11T09:55:04.446Z,1.19
2023-04-11T09:57:30.867Z,1.08
2023-04-11T09:59:57.216Z,1.23
2023-04-11T10:02:23.650Z,1.22
2023-04-11T10:04:50.147Z,1.28
2023-04-11T10:07:16.546Z,1.09
2023-04-11T10:09:42.907Z,1.19
2023-04-11T10:12:09.247Z,1.05
2023-04-11T10:14:35.641Z,1.16
2023-04-11T10:17:02.035Z,1.19
2023-04-11T10:19:28.402Z,1.25
2023-04-11T10:21:54.778Z,1.07
2023-04-11T10:24:21.179Z,0.99
2023-04-11T10:26:47.569Z,1.18
2023-04-11T10:29:14.024Z,0.94
2023-04-11T10:31:40.612Z,1.07
2023-04-11T10:34:07.101Z,1.15
2023-04-11T10:36:33.487Z,1.27
2023-04-11T10:38:59.881Z,1.16
2023-04-11T10:41:26.227Z,1.34
2023-04-11T10:43:52.558Z,1.03
2023-04-11T10:46:18.959Z,1.17
2023-04-11T10:48:45.365Z,1.15
2023-04-11T10:51:11.749Z,0.95
2023-04-11T10:53:38.130Z,1.11
2023-04-11T10:56:04.534Z,1.06
2023-04-11T10:58:30.933Z,1.27
2023-04-11T11:00:57.311Z,1.24
2023-04-11T11:03:23.820Z,1.27
2023-04-11T11:05:50.293Z,1.25
2023-04-11T11:08:16.672Z,1.05
2023-04-11T11:10:43.026Z,1.17
2023-04-11T11:13:09.367Z,1.34
2023-04-11T11:15:35.769Z,1.38
2023-04-11T11:18:02.197Z,1.29
2023-04-11T11:20:28.594Z,1.14
2023-04-11T11:22:55.029Z,1.13
2023-04-11T11:25:21.416Z,1.05
2023-04-11T11:27:47.775Z,0.94
2023-04-11T11:30:14.156Z,0.98
2023-04-11T11:32:40.588Z,1.04
2023-04-11T11:35:06.997Z,1.10
2023-04-11T11:37:33.352Z,1.00
2023-04-11T11:39:59.742Z,1.06
2023-04-11T11:42:26.130Z,1.07
2023-04-11T11:44:52.469Z,1.04
2023-04-11T11:47:18.848Z,1.05
2023-04-11T11:49:45.276Z,1.03
2023-04-11T11:52:11.676Z,1.12
2023-04-11T11:54:38.057Z,1.12
2023-04-11T11:57:04.461Z,1.16
2023-04-11T11:59:30.814Z,1.09
2023-04-11T12:01:57.205Z,1.17
2023-04-11T12:04:23.808Z,1.18
2023-04-11T12:06:50.253Z,1.13
2023-04-11T12:09:16.625Z,0.92
2023-04-11T12:11:43.008Z,1.18
2023-04-11T12:14:09.388Z,1.07
2023-04-11T12:16:35.840Z,1.17
2023-04-11T12:19:02.263Z,1.15
2023-04-11T12:21:28.633Z,1.11
2023-04-11T12:23:55.221Z,1.10
2023-04-11T12:26:21.802Z,1.14
2023-04-11T12:28:48.161Z,1.13
2023-04-11T12:31:14.625Z,1.14
2023-04-11T12:33:41.139Z,1.15
2023-04-11T12:36:07.679Z,1.15
2023-04-11T12:38:34.051Z,1.15
2023-04-11T12:41:26.208Z,1.09
2023-04-11T12:43:46.773Z,1.34
2023-04-11T12:46:13.238Z,1.29
2023-04-11T12:48:39.745Z,1.21
2023-04-11T12:51:06.118Z,1.32
2023-04-11T12:53:32.491Z,1.20
2023-04-11T12:55:58.872Z,1.27
2023-04-11T12:58:25.264Z,1.22
2023-04-11T13:00:51.638Z,1.21
2023-04-11T13:03:18.088Z,1.24
2023-04-11T13:05:44.545Z,1.26
2023-04-11T13:08:11.027Z,1.33
2023-04-11T13:10:37.400Z,1.13
2023-04-11T13:13:17.028Z,1.32
2023-04-11T13:15:44.628Z,1.31
2023-04-11T13:18:11.009Z,1.25
2023-04-11T13:20:37.438Z,1.07
2023-04-11T13:23:03.796Z,1.02
2023-04-11T13:25:30.169Z,1.11
2023-04-11T13:27:56.532Z,1.22
2023-04-11T13:30:22.903Z,1.18
2023-04-11T13:32:52.296Z,1.13
2023-04-11T13:35:18.742Z,1.01
2023-04-11T13:37:45.114Z,1.01
2023-04-11T13:40:11.517Z,0.79
2023-04-11T13:42:37.949Z,0.96
2023-04-11T13:45:04.303Z,1.09
2023-04-11T13:47:30.725Z,0.86
2023-04-11T13:49:57.138Z,0.58
2023-04-11T13:52:23.690Z,0.74
2023-04-11T13:54:50.080Z,0.67
2023-04-11T13:57:16.402Z,0.78
2023-04-11T13:59:42.773Z,0.88
2023-04-11T14:02:09.195Z,0.75
2023-04-11T14:04:35.716Z,0.72
2023-04-11T14:07:02.168Z,0.58
2023-04-11T14:09:28.570Z,0.46
2023-04-11T14:11:55.028Z,0.33
2023-04-11T14:14:21.452Z,0.22
2023-04-11T14:16:47.876Z,0.28
2023-04-11T14:19:14.252Z,0.31
2023-04-11T14:21:40.714Z,0.32
2023-04-11T14:24:07.106Z,0.34
2023-04-11T14:26:33.506Z,0.30
2023-04-11T14:28:59.918Z,0.43
2023-04-11T14:31:26.427Z,0.59
2023-04-11T14:33:52.889Z,0.72
2023-04-11T14:36:19.260Z,0.73
2023-04-11T14:38:45.633Z,0.66
2023-04-11T14:41:11.993Z,0.50
2023-04-11T14:43:38.360Z,0.58
2023-04-11T14:46:04.725Z,0.52
2023-04-11T14:48:31.095Z,0.53
2023-04-11T14:50:57.450Z,0.72
2023-04-11T14:53:23.845Z,0.45
2023-04-11T14:55:50.273Z,0.37
2023-04-11T14:58:16.642Z,0.35
2023-04-11T15:00:43.030Z,0.49
2023-04-11T15:03:09.577Z,0.52
2023-04-11T15:05:36.005Z,0.48
2023-04-11T15:08:02.388Z,0.56
2023-04-11T15:10:28.750Z,0.44
2023-04-11T15:12:55.131Z,0.56
2023-04-11T15:15:21.500Z,0.54
2023-04-11T15:17:47.920Z,0.44
2023-04-11T15:20:14.346Z,0.41
2023-04-11T15:22:41.532Z,0.38
2023-04-11T15:25:08.136Z,0.48
2023-04-11T15:27:34.541Z,0.45
2023-04-11T15:30:00.980Z,0.44
2023-04-11T15:32:27.413Z,0.39
2023-04-11T15:34:53.817Z,0.47
2023-04-11T15:37:20.185Z,0.45
2023-04-11T15:39:46.572Z,0.40
2023-04-11T15:42:13.503Z,0.37
2023-04-11T15:44:40.009Z,0.37
2023-04-11T15:47:06.480Z,0.35
2023-04-11T15:49:32.933Z,0.42
2023-04-11T15:51:59.346Z,0.57
2023-04-11T15:54:25.696Z,0.47
2023-04-11T15:56:52.054Z,0.47
2023-04-11T15:59:18.400Z,0.51
2023-04-11T16:01:44.940Z,0.41
2023-04-11T16:04:11.432Z,0.45
2023-04-11T16:06:37.892Z,0.38
2023-04-11T16:09:04.240Z,0.46
2023-04-11T16:11:30.582Z,0.41
2023-04-11T16:13:57.518Z,0.37
2023-04-11T16:16:24.194Z,0.40
2023-04-11T16:18:50.640Z,0.34
2023-04-11T16:21:16.986Z,0.35
2023-04-11T16:23:43.504Z,0.39
2023-04-11T16:26:09.964Z,0.36
2023-04-11T16:28:36.368Z,0.49
2023-04-11T16:31:02.713Z,0.46
2023-04-11T16:33:29.094Z,0.42
2023-04-11T16:35:55.528Z,0.46
2023-04-11T16:38:21.883Z,0.45
2023-04-11T16:40:48.277Z,0.46
2023-04-11T16:43:14.748Z,0.61
2023-04-11T16:45:41.274Z,0.66
2023-04-11T16:48:07.736Z,0.76
2023-04-11T16:50:34.265Z,0.74
2023-04-11T16:53:00.673Z,0.69
2023-04-11T16:55:27.036Z,0.81
2023-04-11T16:57:53.417Z,0.83
2023-04-11T17:00:19.829Z,0.96
2023-04-11T17:02:46.323Z,1.04
2023-04-11T17:05:12.837Z,0.90
2023-04-11T17:07:39.242Z,0.94
2023-04-11T17:10:05.691Z,0.94
2023-04-11T17:12:32.097Z,0.98
2023-04-11T17:14:58.432Z,4.03
2023-04-11T17:17:24.828Z,2.29
2023-04-11T17:19:51.224Z,1.21
2023-04-11T17:22:17.698Z,3.10
2023-04-11T17:24:44.073Z,1.04
2023-04-11T17:27:10.474Z,0.96
2023-04-11T17:29:36.868Z,1.21
2023-04-11T17:32:03.260Z,1.07
2023-04-11T17:34:29.645Z,0.91
2023-04-11T17:36:56.025Z,1.00
2023-04-11T17:39:22.383Z,0.96
2023-04-11T17:41:48.722Z,0.98
2023-04-11T17:44:15.052Z,1.09
2023-04-11T17:46:41.544Z,1.02
2023-04-11T17:49:07.969Z,0.95
2023-04-11T17:51:34.388Z,1.03
2023-04-11T17:54:01.056Z,0.91
2023-04-11T17:59:11.701Z,1.09
2023-04-11T18:01:38.090Z,0.89
2023-04-11T18:04:04.655Z,0.86
2023-04-11T18:06:31.109Z,0.82
2023-04-11T18:08:57.509Z,0.97
2023-04-11T18:11:23.877Z,0.94
2023-04-11T18:13:54.004Z,1.05
2023-04-11T18:16:20.443Z,0.96
2023-04-11T18:18:46.810Z,1.03
2023-04-11T18:21:13.176Z,1.06
2023-04-11T18:23:39.516Z,0.96
2023-04-11T18:26:05.899Z,0.96
2023-04-11T18:28:32.308Z,1.11
2023-04-11T18:30:58.755Z,1.16
2023-04-11T18:33:25.143Z,1.20
2023-04-11T18:35:51.549Z,1.21
2023-04-11T18:38:18.012Z,1.28
2023-04-11T18:40:44.409Z,1.27
2023-04-11T18:43:10.783Z,1.23
2023-04-11T18:45:39.002Z,1.02
2023-04-11T18:48:06.072Z,1.13
2023-04-11T18:50:32.619Z,1.11
2023-04-11T18:53:04.841Z,1.08
2023-04-11T18:55:32.306Z,1.23
2023-04-11T18:58:00.793Z,1.08
2023-04-11T19:00:27.559Z,1.14
2023-04-11T19:02:54.186Z,1.33
2023-04-11T19:05:20.974Z,1.32
2023-04-11T19:07:47.567Z,1.57
2023-04-11T19:10:13.962Z,1.35
2023-04-11T19:12:40.596Z,1.26
2023-04-11T19:15:07.003Z,1.37
2023-04-11T19:17:33.364Z,1.44
2023-04-11T19:19:59.731Z,1.79
2023-04-11T19:22:26.099Z,1.52
2023-04-11T19:24:52.439Z,1.35
2023-04-11T19:27:18.815Z,1.45
2023-04-11T19:29:45.208Z,1.30
2023-04-11T19:32:11.654Z,1.27
2023-04-11T19:34:38.080Z,1.23
2023-04-11T19:37:04.435Z,1.10
2023-04-11T19:39:30.817Z,0.88
2023-04-11T19:41:57.173Z,1.01
2023-04-11T19:44:23.510Z,0.89
2023-04-11T19:46:49.880Z,0.90
2023-04-11T19:49:16.222Z,0.87
2023-04-11T19:51:42.592Z,0.88
2023-04-11T19:54:08.939Z,0.75
2023-04-11T19:56:35.317Z,0.80
2023-04-11T19:59:01.708Z,0.68
2023-04-11T20:01:28.109Z,0.68
2023-04-11T20:03:54.586Z,0.67
2023-04-11T20:06:21.007Z,0.63
2023-04-11T20:08:47.343Z,1.08
2023-04-11T20:11:13.692Z,0.83
2023-04-11T20:13:40.082Z,1.05
2023-04-11T20:16:06.423Z,0.89
2023-04-11T20:18:32.802Z,0.89
2023-04-11T20:20:59.153Z,0.77
2023-04-11T20:23:25.516Z,0.96
2023-04-11T20:25:51.902Z,0.82
2023-04-11T20:28:18.288Z,0.90
2023-04-11T20:30:44.696Z,1.03
2023-04-11T20:33:11.198Z,0.82
2023-04-11T20:35:37.634Z,0.89
2023-04-11T20:38:04.065Z,0.84
2023-04-11T20:40:30.445Z,0.81
2023-04-11T20:42:56.859Z,0.82
2023-04-11T20:45:23.248Z,0.79
2023-04-11T20:47:49.777Z,1.10
2023-04-11T20:50:16.294Z,1.07
2023-04-11T20:52:42.665Z,1.02
2023-04-11T20:55:09.026Z,0.93
2023-04-11T20:57:35.405Z,0.98
2023-04-11T21:00:01.778Z,1.09
2023-04-11T21:02:28.288Z,1.41
2023-04-11T21:04:54.766Z,1.17
2023-04-11T21:07:21.206Z,1.14
2023-04-11T21:09:47.539Z,1.34
2023-04-11T21:12:13.908Z,1.21
2023-04-11T21:14:40.259Z,1.26
2023-04-11T21:17:06.590Z,1.24
2023-04-11T21:19:32.973Z,1.42
2023-04-11T21:21:59.327Z,1.47
2023-04-11T21:24:25.710Z,1.43
2023-04-11T21:26:52.122Z,1.46
2023-04-11T21:29:18.476Z,1.32
2023-04-11T21:31:44.931Z,1.29
2023-04-11T21:34:11.347Z,1.23
2023-04-11T21:36:37.680Z,1.07
2023-04-11T21:39:04.065Z,1.30
2023-04-11T21:41:30.452Z,1.44
2023-04-11T21:43:57.051Z,1.37
2023-04-11T21:46:23.677Z,1.39
2023-04-11T21:48:51.519Z,1.54
2023-04-11T21:51:17.939Z,1.59
2023-04-11T21:53:44.296Z,1.81
2023-04-11T21:56:10.676Z,1.57
2023-04-11T21:58:37.017Z,1.54
2023-04-11T22:01:03.360Z,1.49
2023-04-11T22:03:29.915Z,1.53
2023-04-11T22:05:56.437Z,1.64
2023-04-11T22:08:22.901Z,1.60
2023-04-11T22:10:49.288Z,1.51
2023-04-11T22:13:15.641Z,1.49
2023-04-11T22:15:42.039Z,1.59
2023-04-11T22:18:08.465Z,1.79
2023-04-11T22:20:34.863Z,1.42
2023-04-11T22:23:01.215Z,1.62
2023-04-11T22:25:27.599Z,1.41
2023-04-11T22:27:53.972Z,1.42
2023-04-11T22:30:20.339Z,1.39
2023-04-11T22:32:46.763Z,1.40
2023-04-11T22:35:13.131Z,1.46
2023-04-11T22:37:39.517Z,1.51
2023-04-11T22:40:05.869Z,1.65
2023-04-11T22:42:32.241Z,1.31
2023-04-11T22:44:58.595Z,1.45
2023-04-11T22:47:24.946Z,1.56
2023-04-11T22:49:51.358Z,1.46
2023-04-11T22:52:17.746Z,1.43
2023-04-11T22:54:44.108Z,1.48
2023-04-11T22:57:10.510Z,1.45
2023-04-11T22:59:36.883Z,1.62
2023-04-11T23:02:03.359Z,1.42
2023-04-11T23:04:29.820Z,1.41
2023-04-11T23:06:56.187Z,1.44
2023-04-11T23:09:22.560Z,1.29
2023-04-11T23:11:49.014Z,1.33
2023-04-11T23:14:15.525Z,1.49
2023-04-11T23:16:42.001Z,1.46
2023-04-11T23:19:08.444Z,1.47
2023-04-11T23:21:34.843Z,1.60
2023-04-11T23:24:01.194Z,1.71
2023-04-11T23:26:27.565Z,1.83
2023-04-11T23:28:53.910Z,1.95
2023-04-11T23:31:20.346Z,2.25
2023-04-11T23:33:46.755Z,2.16
2023-04-11T23:36:13.191Z,2.30
2023-04-11T23:38:39.582Z,2.54
2023-04-11T23:41:06.117Z,2.52
2023-04-11T23:43:32.511Z,2.48
2023-04-11T23:45:58.950Z,2.48
2023-04-11T23:48:25.315Z,2.50
2023-04-11T23:50:51.713Z,2.78
2023-04-11T23:53:18.113Z,2.66
2023-04-11T23:55:44.480Z,2.57
2023-04-11T23:58:10.826Z,2.74
